Time;durP1;ratioP1;P1;durP2;ratioP2;P2;SDS_P1;SDS_P2;PMS_P1;PMS_P2;Temp;Humidity;BMP_temperature;BMP_pressure;BME280_temperature;BME280_humidity;BME280_pressure;Samples;Min_cycle;Max_cycle;Signal;HPM_P1;HPM_P2
2023/09/24 00:00:55;;;;;;;3.50;1.03;;;;;;;8.41;100.00;148265.91;4901946;28;20360;-60
2023/09/24 00:03:22;;;;;;;3.73;0.90;;;;;;;8.40;100.00;148263.41;4906800;28;20273;-59
2023/09/24 00:05:50;;;;;;;3.77;1.00;;;;;;;8.45;100.00;148273.38;4902346;28;20602;-60
2023/09/24 00:08:17;;;;;;;1.20;0.90;;;;;;;8.51;100.00;148289.56;4909145;29;20662;-60
2023/09/24 00:10:52;;;;;;;3.07;1.00;;;;;;;8.46;100.00;148277.06;4903806;28;20225;-60
2023/09/24 00:13:19;;;;;;;3.30;1.10;;;;;;;8.53;100.00;148294.53;4905820;28;20598;-59
2023/09/24 00:15:51;;;;;;;2.80;0.90;;;;;;;8.51;100.00;148288.28;4921097;28;20296;-60
2023/09/24 00:18:18;;;;;;;2.57;1.00;;;;;;;8.54;100.00;148295.75;4908379;28;20236;-60
2023/09/24 00:20:50;;;;;;;3.47;1.00;;;;;;;8.52;100.00;148292.06;4905266;28;20226;-60
2023/09/24 00:23:17;;;;;;;2.53;0.90;;;;;;;8.47;100.00;148279.56;4904618;29;20612;-60
2023/09/24 00:26:08;;;;;;;3.37;1.00;;;;;;;8.49;100.00;148283.31;4907477;28;20239;-60
2023/09/24 00:28:35;;;;;;;2.17;1.03;;;;;;;8.53;100.00;148294.53;4921155;28;20257;-59
2023/09/24 00:31:03;;;;;;;5.90;1.10;;;;;;;8.54;100.00;148295.75;4905297;28;20245;-59
2023/09/24 00:33:29;;;;;;;4.10;1.00;;;;;;;8.50;100.00;148285.81;4900076;29;20265;-60
2023/09/24 00:35:58;;;;;;;4.23;1.10;;;;;;;8.49;100.00;148284.59;4902948;28;20244;-59
2023/09/24 00:38:25;;;;;;;3.07;1.07;;;;;;;8.38;100.00;148257.19;4906009;29;20233;-59
2023/09/24 00:40:52;;;;;;;2.70;1.17;;;;;;;8.38;100.00;148257.19;4903605;28;20225;-59
2023/09/24 00:43:25;;;;;;;5.90;1.30;;;;;;;8.28;100.00;148234.78;4916082;28;20236;-59
2023/09/24 00:45:52;;;;;;;5.33;1.27;;;;;;;8.22;100.00;148218.66;4904749;28;20225;-59
2023/09/24 00:48:21;;;;;;;5.47;1.17;;;;;;;8.25;100.00;148226.09;4905533;28;20242;-60
2023/09/24 00:50:49;;;;;;;4.03;1.00;;;;;;;8.33;100.00;148246.00;4919693;28;20285;-59
2023/09/24 00:53:16;;;;;;;5.03;1.20;;;;;;;8.48;100.00;148280.84;4906598;28;20240;-59
2023/09/24 00:55:49;;;;;;;4.43;1.00;;;;;;;8.42;100.00;148267.13;4917711;28;20229;-59
2023/09/24 00:58:17;;;;;;;2.10;0.80;;;;;;;8.30;100.00;148238.53;4897703;28;20591;-60
2023/09/24 01:00:50;;;;;;;4.27;1.00;;;;;;;8.23;100.00;148221.13;4895144;28;20736;-60
2023/09/24 01:03:16;;;;;;;2.63;1.00;;;;;;;8.21;100.00;148216.16;4905552;28;20241;-58
2023/09/24 01:05:51;;;;;;;7.17;1.37;;;;;;;8.15;100.00;148201.22;4903042;28;20634;-59
2023/09/24 01:08:19;;;;;;;5.83;1.40;;;;;;;8.15;100.00;148202.47;4922127;28;20246;-60
2023/09/24 01:10:50;;;;;;;2.53;1.03;;;;;;;8.24;100.00;148223.63;4914941;28;20234;-60
2023/09/24 01:13:20;;;;;;;6.57;1.23;;;;;;;8.22;100.00;148218.66;4907503;29;20241;-60
2023/09/24 01:15:50;;;;;;;2.40;1.10;;;;;;;8.18;100.00;148209.91;4913502;28;20233;-59
2023/09/24 01:18:16;;;;;;;3.93;1.30;;;;;;;8.17;100.00;148206.22;4920133;28;20245;-59
2023/09/24 01:21:12;;;;;;;3.90;1.70;;;;;;;8.12;100.00;148196.25;4903033;28;20727;-60
2023/09/24 01:23:42;;;;;;;4.63;1.40;;;;;;;8.12;100.00;148196.25;4907140;28;20771;-60
2023/09/24 01:26:11;;;;;;;4.03;1.30;;;;;;;8.10;100.00;148191.28;4921235;28;20232;-59
2023/09/24 01:28:39;;;;;;;3.90;1.03;;;;;;;8.17;100.00;148207.44;4895272;29;20233;-60
2023/09/24 01:31:05;;;;;;;3.60;1.20;;;;;;;8.17;100.00;148207.44;4918518;28;20494;-60
2023/09/24 01:33:32;;;;;;;4.53;1.10;;;;;;;8.13;100.00;148198.75;4904554;29;20225;-60
2023/09/24 01:35:59;;;;;;;4.70;1.30;;;;;;;8.13;100.00;148197.47;4909483;28;20237;-60
2023/09/24 01:38:26;;;;;;;3.80;1.20;;;;;;;8.09;100.00;148187.53;4911598;28;20245;-60
2023/09/24 01:40:55;;;;;;;1.83;1.00;;;;;;;8.05;100.00;148178.84;4908204;28;20336;-59
2023/09/24 01:43:21;;;;;;;2.70;1.00;;;;;;;8.17;100.00;148207.44;4911635;28;20236;-60
2023/09/24 01:45:49;;;;;;;5.47;1.23;;;;;;;8.14;100.00;148199.97;4901901;28;20232;-59
2023/09/24 01:48:17;;;;;;;3.87;1.30;;;;;;;8.08;100.00;148186.31;4912996;28;20523;-60
2023/09/24 01:50:49;;;;;;;3.67;1.00;;;;;;;8.04;100.00;148176.38;4906099;28;20283;-60
2023/09/24 01:53:16;;;;;;;6.20;1.00;;;;;;;8.00;100.00;148166.41;4912930;28;20710;-60
2023/09/24 01:56:09;;;;;;;3.77;1.10;;;;;;;8.04;100.00;148176.38;4907670;28;20248;-60
2023/09/24 01:58:37;;;;;;;3.30;1.10;;;;;;;7.93;100.00;148150.28;4926333;28;20795;-59
2023/09/24 02:01:04;;;;;;;7.73;1.30;;;;;;;7.86;100.00;148131.59;4907575;29;20715;-60
2023/09/24 02:03:31;;;;;;;8.10;1.13;;;;;;;7.91;100.00;148144.03;4900884;28;20229;-61
2023/09/24 02:05:58;;;;;;;8.60;1.20;;;;;;;7.88;100.00;148136.56;4907709;28;20238;-58
2023/09/24 02:08:24;;;;;;;5.63;1.20;;;;;;;7.83;100.00;148125.41;4909859;28;20240;-61
2023/09/24 02:10:51;;;;;;;2.97;1.00;;;;;;;7.80;100.00;148117.97;4905178;28;20232;-61
2023/09/24 02:13:20;;;;;;;1.90;0.90;;;;;;;7.76;100.00;148109.22;4903380;29;20247;-61
2023/09/24 02:15:50;;;;;;;3.97;1.53;;;;;;;7.75;100.00;148106.75;4923163;28;20220;-61
2023/09/24 02:18:17;;;;;;;2.83;1.10;;;;;;;7.77;100.00;148110.50;4908488;28;20237;-61
2023/09/24 02:20:51;;;;;;;2.80;1.00;;;;;;;7.68;100.00;148090.59;4905660;28;20225;-61
2023/09/24 02:23:18;;;;;;;3.67;1.13;;;;;;;7.76;100.00;148108.00;4922876;28;20246;-59
2023/09/24 02:25:49;;;;;;;4.47;1.03;;;;;;;7.71;100.00;148096.78;4911164;28;20574;-59
2023/09/24 02:28:43;;;;;;;4.57;1.17;;;;;;;7.72;100.00;148099.28;4908120;29;20803;-58
2023/09/24 02:31:11;;;;;;;4.37;1.20;;;;;;;7.80;100.00;148119.16;4904205;28;20245;-59
2023/09/24 02:33:37;;;;;;;4.00;1.13;;;;;;;7.82;100.00;148122.94;4906129;29;20232;-58
2023/09/24 02:36:08;;;;;;;4.13;1.20;;;;;;;7.87;100.00;148135.34;4923860;28;20238;-59
2023/09/24 02:38:35;;;;;;;4.60;1.33;;;;;;;7.77;100.00;148111.72;4907874;29;20323;-58
2023/09/24 02:41:04;;;;;;;6.60;1.47;;;;;;;7.77;100.00;148110.50;4905221;28;20576;-58
2023/09/24 02:43:32;;;;;;;3.43;1.30;;;;;;;7.73;100.00;148101.75;4907617;29;20229;-59
2023/09/24 02:46:03;;;;;;;3.93;1.17;;;;;;;7.77;100.00;148111.72;4907905;28;20323;-58
2023/09/24 02:48:30;;;;;;;7.70;1.43;;;;;;;7.72;100.00;148098.06;4901838;29;20236;-58
2023/09/24 02:50:57;;;;;;;5.47;1.13;;;;;;;7.83;100.00;148125.41;4904506;28;20239;-59
2023/09/24 02:53:24;;;;;;;2.93;1.30;;;;;;;7.89;100.00;148140.34;4911764;29;20229;-59
2023/09/24 02:55:50;;;;;;;3.10;1.23;;;;;;;7.83;100.00;148125.41;4898883;28;20311;-59
2023/09/24 02:58:19;;;;;;;5.23;1.30;;;;;;;7.74;100.00;148104.25;4921292;28;20238;-60
2023/09/24 03:00:50;;;;;;;5.87;1.20;;;;;;;7.76;100.00;148108.00;4892867;28;20244;-59
2023/09/24 03:03:18;;;;;;;9.13;1.10;;;;;;;7.66;100.00;148084.38;4923183;28;20283;-61
2023/09/24 03:05:50;;;;;;;6.23;1.40;;;;;;;7.59;100.00;148068.22;4906307;28;20228;-60
2023/09/24 03:08:16;;;;;;;7.40;1.40;;;;;;;7.59;100.00;148066.97;4917916;29;20701;-60
2023/09/24 03:10:49;;;;;;;4.53;1.03;;;;;;;7.56;100.00;148059.50;4920223;28;20225;-60
2023/09/24 03:13:16;;;;;;;4.90;1.10;;;;;;;7.52;100.00;148050.81;4906589;29;20242;-60
2023/09/24 03:15:49;;;;;;;4.50;1.10;;;;;;;7.53;100.00;148053.31;4920217;28;20597;-61
2023/09/24 03:18:16;;;;;;;6.10;1.00;;;;;;;7.46;100.00;148035.91;4909245;29;20240;-61
2023/09/24 03:21:14;;;;;;;2.83;1.27;;;;;;;7.51;100.00;148049.56;4906538;28;20601;-60
2023/09/24 03:23:41;;;;;;;6.23;1.30;;;;;;;7.53;100.00;148053.31;4921466;28;20221;-61
2023/09/24 03:26:08;;;;;;;6.37;1.40;;;;;;;7.57;100.00;148061.97;4906240;28;20734;-59
2023/09/24 03:28:35;;;;;;;4.17;1.20;;;;;;;7.48;100.00;148040.88;4904620;29;20240;-58
2023/09/24 03:31:02;;;;;;;4.50;1.23;;;;;;;7.47;100.00;148039.63;5150199;23;20210;-60
2023/09/24 03:33:30;;;;;;;3.97;1.43;;;;;;;7.38;100.00;148018.50;4921851;29;20238;-60
2023/09/24 03:35:57;;;;;;;4.93;1.50;;;;;;;7.35;100.00;148011.06;4923096;28;20620;-61
2023/09/24 03:38:25;;;;;;;6.33;1.50;;;;;;;7.38;100.00;148018.50;4943653;28;20630;-61
2023/09/24 03:40:51;;;;;;;4.00;1.20;;;;;;;7.39;100.00;148019.78;4918749;28;20238;-61
2023/09/24 03:43:18;;;;;;;4.23;1.40;;;;;;;7.45;100.00;148033.41;4899532;29;20323;-61
2023/09/24 03:45:51;;;;;;;3.00;1.10;;;;;;;7.43;100.00;148028.44;4897436;28;20228;-60
2023/09/24 03:48:18;;;;;;;2.20;1.23;;;;;;;7.37;100.00;148016.03;4901627;29;20259;-61
2023/09/24 03:50:50;;;;;;;8.57;1.47;;;;;;;7.35;100.00;148011.06;4911647;29;20730;-61
2023/09/24 03:53:17;;;;;;;3.43;1.10;;;;;;;7.38;100.00;148018.50;4914605;29;20789;-61
2023/09/24 03:55:52;;;;;;;5.20;1.20;;;;;;;7.36;100.00;148012.31;4913025;28;20224;-60
2023/09/24 03:58:19;;;;;;;7.77;1.60;;;;;;;7.36;100.00;148013.53;4901363;29;20232;-61
2023/09/24 04:00:49;;;;;;;3.17;1.20;;;;;;;7.44;100.00;148032.16;4897686;29;20228;-60
2023/09/24 04:03:16;;;;;;;3.87;2.03;;;;;;;7.42;100.00;148025.97;4899533;29;20275;-60
2023/09/24 04:05:49;;;;;;;6.83;1.40;;;;;;;7.40;100.00;148022.25;4912389;28;20216;-61
2023/09/24 04:08:16;;;;;;;4.87;1.30;;;;;;;7.30;100.00;147997.41;4898097;29;20234;-61
2023/09/24 04:11:15;;;;;;;3.43;1.33;;;;;;;7.29;100.00;147994.91;4898816;28;20256;-61
2023/09/24 04:13:42;;;;;;;6.73;1.17;;;;;;;7.27;100.00;147991.16;4897239;29;20311;-61
2023/09/24 04:16:10;;;;;;;3.40;1.50;;;;;;;7.29;100.00;147996.13;4902391;29;20243;-61
2023/09/24 04:18:37;;;;;;;6.50;1.20;;;;;;;7.28;100.00;147993.66;4901399;29;20728;-61
2023/09/24 04:21:04;;;;;;;6.90;1.40;;;;;;;7.48;100.00;148040.88;4898030;29;20791;-60
2023/09/24 04:23:30;;;;;;;4.80;1.90;;;;;;;7.49;100.00;148044.59;4897506;29;20599;-61
2023/09/24 04:25:57;;;;;;;3.23;1.57;;;;;;;7.57;100.00;148061.97;4881315;28;20224;-61
2023/09/24 04:28:25;;;;;;;3.43;1.43;;;;;;;7.56;100.00;148060.78;4901973;29;20252;-61
2023/09/24 04:30:52;;;;;;;6.53;1.87;;;;;;;7.47;100.00;148038.41;4897415;29;20249;-61
2023/09/24 04:33:19;;;;;;;5.67;1.50;;;;;;;7.51;100.00;148049.56;4899820;29;20253;-60
2023/09/24 04:35:49;;;;;;;6.13;1.40;;;;;;;7.50;100.00;148047.06;4898156;28;20239;-60
2023/09/24 04:38:17;;;;;;;6.27;1.53;;;;;;;7.43;100.00;148028.44;4901708;29;21061;-61
2023/09/24 04:40:49;;;;;;;8.27;1.50;;;;;;;7.39;100.00;148019.78;4897252;28;20223;-61
2023/09/24 04:43:18;;;;;;;6.00;1.60;;;;;;;7.29;100.00;147994.91;4901017;29;20935;-61
2023/09/24 04:45:51;;;;;;;6.23;1.47;;;;;;;7.29;100.00;147994.91;4898413;28;20277;-61
2023/09/24 04:48:17;;;;;;;11.13;2.03;;;;;;;7.22;100.00;147978.75;4901566;29;20233;-61
2023/09/24 04:50:49;;;;;;;3.37;1.40;;;;;;;7.20;100.00;147973.78;4890630;28;20216;-61
2023/09/24 04:53:16;;;;;;;7.33;1.40;;;;;;;7.21;100.00;147976.25;4900700;28;20239;-61
2023/09/24 04:56:08;;;;;;;5.50;1.43;;;;;;;7.14;100.00;147958.84;4899389;29;20376;-60
2023/09/24 04:58:35;;;;;;;6.23;1.70;;;;;;;7.25;100.00;147986.19;4900015;29;20232;-60
2023/09/24 05:01:07;;;;;;;4.67;1.67;;;;;;;7.29;100.00;147996.13;4896733;29;20291;-61
2023/09/24 05:03:36;;;;;;;9.23;1.90;;;;;;;7.34;100.00;148008.56;4901281;29;20249;-61
2023/09/24 05:06:03;;;;;;;4.47;2.07;;;;;;;7.31;100.00;148001.09;4897753;29;20240;-60
2023/09/24 05:08:30;;;;;;;4.67;1.43;;;;;;;7.29;100.00;147996.13;4902917;29;20781;-60
2023/09/24 05:10:56;;;;;;;3.00;1.63;;;;;;;7.35;100.00;148009.81;4900157;28;20753;-60
2023/09/24 05:13:23;;;;;;;6.13;1.60;;;;;;;7.39;100.00;148019.78;4904984;29;20239;-60
2023/09/24 05:15:51;;;;;;;6.90;1.93;;;;;;;7.42;100.00;148025.97;4901464;28;20237;-61
2023/09/24 05:18:19;;;;;;;4.17;1.30;;;;;;;7.46;100.00;148037.13;4903554;29;20336;-60
2023/09/24 05:20:50;;;;;;;4.53;1.20;;;;;;;7.42;100.00;148025.97;4900859;28;20284;-59
2023/09/24 05:23:16;;;;;;;3.73;1.60;;;;;;;7.47;100.00;148039.63;4904246;29;20240;-59
2023/09/24 05:25:50;;;;;;;5.80;1.77;;;;;;;7.41;100.00;148024.75;4901609;29;20231;-61
2023/09/24 05:28:17;;;;;;;2.80;1.50;;;;;;;7.44;100.00;148032.16;4903830;29;20236;-59
2023/09/24 05:30:53;;;;;;;3.63;1.57;;;;;;;7.41;100.00;148024.75;4911931;29;20260;-60
2023/09/24 05:33:21;;;;;;;3.90;1.27;;;;;;;7.43;100.00;148029.66;4900105;29;20315;-60
2023/09/24 05:35:52;;;;;;;4.27;1.43;;;;;;;7.37;100.00;148014.81;4901708;29;20831;-60
2023/09/24 05:38:19;;;;;;;3.03;1.60;;;;;;;7.33;100.00;148004.84;4904081;29;20233;-61
2023/09/24 05:40:49;;;;;;;4.83;1.53;;;;;;;7.34;100.00;148007.34;4900843;29;20246;-61
2023/09/24 05:43:16;;;;;;;4.50;1.70;;;;;;;7.45;100.00;148034.63;4904645;29;20781;-61
2023/09/24 05:46:11;;;;;;;9.47;1.60;;;;;;;7.47;100.00;148039.63;4903084;29;21235;-61
2023/09/24 05:48:39;;;;;;;7.00;1.77;;;;;;;7.56;100.00;148060.78;4903272;29;20612;-63
2023/09/24 05:51:07;;;;;;;3.67;1.73;;;;;;;7.63;100.00;148078.16;4900869;29;20235;-60
2023/09/24 05:53:34;;;;;;;4.20;1.63;;;;;;;7.64;100.00;148079.38;4903739;29;20244;-60
2023/09/24 05:56:03;;;;;;;7.20;2.13;;;;;;;7.73;100.00;148101.75;4902358;29;20225;-61
2023/09/24 05:58:30;;;;;;;3.97;1.47;;;;;;;7.74;100.00;148103.03;4903479;29;20248;-61
2023/09/24 06:00:58;;;;;;;5.83;1.63;;;;;;;7.79;100.00;148116.69;4900101;28;20220;-60
2023/09/24 06:03:24;;;;;;;4.73;1.50;;;;;;;7.77;100.00;148111.72;4902871;29;20236;-62
2023/09/24 06:05:53;;;;;;;4.27;1.60;;;;;;;7.86;100.00;148131.59;4900359;29;20235;-60
2023/09/24 06:08:20;;;;;;;7.83;1.80;;;;;;;7.87;100.00;148135.34;4902848;29;20243;-61
2023/09/24 06:10:49;;;;;;;4.10;1.60;;;;;;;7.88;100.00;148136.56;4901033;29;20306;-61
2023/09/24 06:13:16;;;;;;;3.87;1.53;;;;;;;7.88;100.00;148136.56;4903443;29;20237;-62
2023/09/24 06:16:08;;;;;;;4.97;1.40;;;;;;;7.90;100.00;148141.56;4902024;28;20259;-60
2023/09/24 06:18:34;;;;;;;3.80;1.77;;;;;;;7.90;100.00;148142.81;4900503;29;20245;-60
2023/09/24 06:21:04;;;;;;;4.43;1.97;;;;;;;7.94;100.00;148151.50;4894858;28;20250;-57
2023/09/24 06:23:30;;;;;;;6.40;1.53;;;;;;;7.98;100.00;148162.66;4900517;29;20232;-59
2023/09/24 06:25:58;;;;;;;4.03;1.97;;;;;;;8.01;100.00;148167.63;4900793;29;20776;-59
2023/09/24 06:28:25;;;;;;;6.17;1.80;;;;;;;8.03;100.00;148173.88;4901446;29;20237;-58
2023/09/24 06:30:59;;;;;;;6.27;1.80;;;;;;;8.04;100.00;148176.38;4898947;29;20588;-60
2023/09/24 06:33:26;;;;;;;5.03;1.57;;;;;;;8.03;100.00;148173.88;4901963;29;20255;-59
2023/09/24 06:35:52;;;;;;;3.10;1.50;;;;;;;8.03;100.00;148173.88;4897215;28;20237;-59
2023/09/24 06:38:20;;;;;;;3.47;1.90;;;;;;;8.02;100.00;148170.13;4902778;29;20604;-60
2023/09/24 06:40:57;;;;;;;3.73;1.50;;;;;;;8.02;100.00;148170.13;4898820;29;20232;-61
2023/09/24 06:43:24;;;;;;;5.47;1.60;;;;;;;8.06;100.00;148180.06;4903108;29;20786;-61
2023/09/24 06:45:51;;;;;;;7.93;1.60;;;;;;;8.10;100.00;148191.28;4900399;29;20563;-61
2023/09/24 06:48:19;;;;;;;5.73;1.90;;;;;;;8.15;100.00;148201.22;4904136;29;20248;-61
2023/09/24 06:50:50;;;;;;;7.17;1.83;;;;;;;8.20;100.00;148214.91;4899773;28;20261;-61
2023/09/24 06:53:16;;;;;;;6.93;1.60;;;;;;;8.20;100.00;148213.66;4900934;29;20249;-60
2023/09/24 06:56:10;;;;;;;4.63;1.57;;;;;;;8.27;100.00;148231.09;4900328;29;20269;-60
2023/09/24 06:58:37;;;;;;;8.03;1.80;;;;;;;8.31;100.00;148241.03;4900202;29;20728;-60
2023/09/24 07:01:05;;;;;;;5.67;1.93;;;;;;;8.33;100.00;148244.75;4898874;29;20249;-61
2023/09/24 07:03:32;;;;;;;4.53;1.90;;;;;;;8.39;100.00;148259.66;4900142;29;20300;-60
2023/09/24 07:05:59;;;;;;;2.87;1.57;;;;;;;8.46;100.00;148275.84;4897793;29;20251;-60
2023/09/24 07:08:26;;;;;;;3.87;1.90;;;;;;;8.48;100.00;148280.84;4903245;29;20785;-60
2023/09/24 07:11:25;;;;;;;2.60;1.53;;;;;;;8.53;100.00;148293.28;4900515;28;20230;-60
2023/09/24 07:13:53;;;;;;;5.20;1.93;;;;;;;8.62;100.00;148315.66;4899393;29;20240;-61
2023/09/24 07:16:21;;;;;;;4.13;1.77;;;;;;;8.73;100.00;148341.81;4901842;29;20240;-60
2023/09/24 07:18:49;;;;;;;3.80;2.30;;;;;;;8.79;100.00;148355.47;4891426;29;20304;-60
2023/09/24 07:21:16;;;;;;;3.77;1.87;;;;;;;8.89;100.00;148379.13;4900528;28;20230;-60
2023/09/24 07:23:43;;;;;;;3.30;1.97;;;;;;;8.97;100.00;148400.25;4895884;29;20225;-61
2023/09/24 07:26:09;;;;;;;6.77;1.73;;;;;;;9.08;100.00;148425.16;4902784;28;20741;-60
2023/09/24 07:28:38;;;;;;;7.50;2.27;;;;;;;9.16;100.00;148445.06;4901189;29;20233;-61
2023/09/24 07:31:04;;;;;;;4.17;2.13;;;;;;;9.22;100.00;148458.72;4898613;29;20240;-61
2023/09/24 07:33:31;;;;;;;4.27;2.13;;;;;;;9.32;100.00;148482.38;4900962;29;20253;-62
2023/09/24 07:35:57;;;;;;;2.37;1.67;;;;;;;9.43;100.00;148509.78;4896578;29;20237;-60
2023/09/24 07:38:24;;;;;;;4.47;1.80;;;;;;;9.48;100.00;148520.94;4900843;29;20236;-60
2023/09/24 07:40:50;;;;;;;5.37;2.00;;;;;;;9.57;100.00;148543.34;4899095;29;20233;-61
2023/09/24 07:43:18;;;;;;;4.57;1.90;;;;;;;9.71;100.00;148576.94;4900596;29;20318;-60
2023/09/24 07:45:51;;;;;;;5.50;2.17;;;;;;;9.84;100.00;148608.09;4895619;29;20238;-61
2023/09/24 07:48:18;;;;;;;6.37;2.10;;;;;;;10.02;100.00;148651.63;4901392;29;20222;-60
2023/09/24 07:50:53;;;;;;;5.43;1.70;;;;;;;10.14;100.00;148680.25;4899338;29;20309;-64
2023/09/24 07:53:22;;;;;;;5.47;1.90;;;;;;;10.25;100.00;148707.66;4893500;29;20233;-60
2023/09/24 07:55:54;;;;;;;5.63;1.60;;;;;;;10.40;100.00;148743.84;4901743;28;20638;-59
2023/09/24 07:58:21;;;;;;;4.50;1.60;;;;;;;10.54;100.00;148776.22;4901010;29;20246;-60
2023/09/24 08:00:52;;;;;;;7.10;1.70;;;;;;;10.64;100.00;148801.09;4897072;29;20226;-60
2023/09/24 08:03:19;;;;;;;6.43;1.87;;;;;;;10.82;100.00;148843.44;4899201;29;20239;-60
2023/09/24 08:05:50;;;;;;;4.90;1.53;;;;;;;10.92;100.00;148868.34;4890251;29;20734;-59
2023/09/24 08:08:16;;;;;;;4.50;1.60;;;;;;;11.02;100.00;148893.28;4901789;29;20234;-59
2023/09/24 08:11:08;;;;;;;3.50;1.67;;;;;;;11.15;100.00;148923.16;4898645;29;20271;-59
2023/09/24 08:13:35;;;;;;;6.63;2.30;;;;;;;11.25;100.00;148946.81;4898616;29;20320;-61
2023/09/24 08:16:03;;;;;;;3.40;2.37;;;;;;;11.26;100.00;148950.59;4898850;29;20763;-59
2023/09/24 08:18:30;;;;;;;7.43;2.57;;;;;;;11.41;100.00;148985.47;4903215;29;20238;-59
2023/09/24 08:20:57;;;;;;;8.47;2.13;;;;;;;11.42;100.00;148989.19;4896451;28;20243;-58
2023/09/24 08:23:24;;;;;;;7.27;2.30;;;;;;;11.56;100.00;149022.88;4900132;29;20246;-59
2023/09/24 08:25:52;;;;;;;8.37;2.30;;;;;;;11.58;100.00;149027.84;4898600;28;20345;-59
2023/09/24 08:28:19;;;;;;;5.40;2.27;;;;;;;11.76;100.00;149071.47;4901675;29;20610;-59
2023/09/24 08:30:50;;;;;;;6.50;2.30;;;;;;;11.89;100.00;149101.38;4898701;29;20292;-59
2023/09/24 08:33:18;;;;;;;5.33;2.40;;;;;;;11.92;100.00;149110.09;4900713;29;20249;-59
2023/09/24 08:35:49;;;;;;;4.63;2.50;;;;;;;12.08;100.00;149148.78;4894715;29;20236;-59
2023/09/24 08:38:16;;;;;;;5.03;2.50;;;;;;;12.13;100.00;149158.78;4899505;29;20321;-60
2023/09/24 08:41:12;;;;;;;5.53;2.77;;;;;;;12.22;100.00;149182.44;4899300;29;20238;-61
2023/09/24 08:43:42;;;;;;;4.27;3.13;;;;;;;12.20;100.00;149177.44;4900609;28;20334;-60
2023/09/24 08:46:10;;;;;;;4.67;2.67;;;;;;;12.23;100.00;149183.66;4898703;29;20225;-60
2023/09/24 08:48:38;;;;;;;5.37;2.30;;;;;;;12.34;100.00;149211.09;4900763;29;20712;-59
2023/09/24 08:51:07;;;;;;;7.50;2.73;;;;;;;12.40;100.00;149224.84;4912665;29;20239;-59
2023/09/24 08:53:35;;;;;;;4.57;2.60;;;;;;;12.49;100.00;149246.00;4900364;29;20239;-60
2023/09/24 08:56:02;;;;;;;8.27;2.17;;;;;;;12.69;100.00;149294.69;4887997;29;20259;-60
2023/09/24 08:58:29;;;;;;;4.77;2.23;;;;;;;12.79;100.00;149319.56;4900464;29;20236;-60
2023/09/24 09:00:55;;;;;;;4.07;2.07;;;;;;;12.72;100.00;149300.88;4896394;29;20230;-59
2023/09/24 09:03:22;;;;;;;5.13;2.30;;;;;;;12.77;100.00;149314.59;4899712;29;20257;-60
2023/09/24 09:05:51;;;;;;;4.60;2.23;;;;;;;12.71;100.00;149299.66;4898769;28;20704;-60
2023/09/24 09:08:18;;;;;;;4.20;2.17;;;;;;;12.90;100.00;149345.78;4901082;29;20245;-59
2023/09/24 09:10:50;;;;;;;5.30;2.60;;;;;;;12.97;100.00;149362.00;4910721;28;20224;-60
2023/09/24 09:13:18;;;;;;;5.00;2.10;;;;;;;13.10;100.00;149394.44;4899805;29;20745;-61
2023/09/24 09:16:02;;;;;;;4.93;2.30;;;;;;;13.20;100.00;149418.16;4895464;29;20221;-61
2023/09/24 09:18:29;;;;;;;4.97;1.83;;;;;;;13.29;100.00;149439.34;4898883;29;20289;-60
2023/09/24 09:20:59;;;;;;;5.03;2.13;;;;;;;13.37;100.00;149459.31;4897009;28;20266;-61
2023/09/24 09:23:34;;;;;;;6.07;2.33;;;;;;;13.47;100.00;149483.03;4882920;29;20333;-60
2023/09/24 09:26:01;;;;;;;3.53;2.13;;;;;;;13.44;100.00;149475.56;4896628;29;20239;-59
2023/09/24 09:28:29;;;;;;;9.70;2.43;;;;;;;13.50;100.00;149490.53;4902843;29;20255;-60
2023/09/24 09:31:05;;;;;;;4.72;2.40;;;;;;;13.64;100.00;149524.25;4895232;29;20457;-60
2023/09/24 09:33:35;;;;;;;4.00;2.00;;;;;;;13.76;100.00;149552.94;4900607;29;20236;-59
2023/09/24 09:36:04;;;;;;;4.30;2.10;;;;;;;13.75;100.00;149549.22;4897388;28;20243;-60
2023/09/24 09:38:31;;;;;;;3.90;2.03;;;;;;;13.83;100.00;149570.41;4897873;29;20224;-60
2023/09/24 09:40:59;;;;;;;3.63;2.20;;;;;;;13.91;100.00;149589.09;4899153;28;20216;-59
2023/09/24 09:43:27;;;;;;;5.97;2.23;;;;;;;13.93;99.90;149592.88;4900014;29;20249;-59
2023/09/24 09:45:55;;;;;;;3.17;1.80;;;;;;;14.09;100.00;149631.53;4897256;29;20233;-59
2023/09/24 09:48:31;;;;;;;3.03;1.87;;;;;;;14.11;99.04;149637.81;4896236;29;20240;-60
2023/09/24 09:51:06;;;;;;;5.00;2.10;;;;;;;14.23;98.83;149666.50;4904351;29;20225;-60
2023/09/24 09:53:37;;;;;;;4.10;1.77;;;;;;;14.11;98.77;149636.53;4900315;29;20235;-59
2023/09/24 09:56:05;;;;;;;3.40;2.10;;;;;;;14.26;98.52;149674.00;4899786;28;20344;-60
2023/09/24 09:58:34;;;;;;;4.33;1.67;;;;;;;14.43;98.17;149713.94;4903533;29;20304;-60
2023/09/24 10:01:01;;;;;;;4.30;1.60;;;;;;;14.57;99.37;149748.91;4916758;23;20237;-53
2023/09/24 10:03:30;;;;;;;5.83;2.17;;;;;;;14.55;96.49;149742.63;4904625;29;20237;-53
2023/09/24 10:06:17;;;;;;;5.67;2.23;;;;;;;14.59;96.13;149753.91;4900981;29;20743;-54
2023/09/24 10:08:45;;;;;;;7.30;1.67;;;;;;;14.58;94.71;149751.41;4898840;29;20641;-52
2023/09/24 10:11:13;;;;;;;3.73;1.63;;;;;;;14.66;94.50;149770.13;4903308;28;20278;-55
2023/09/24 10:13:47;;;;;;;6.40;1.90;;;;;;;14.50;94.04;149731.44;4900309;29;20704;-55
2023/09/24 10:16:35;;;;;;;4.87;1.90;;;;;;;14.40;92.92;149706.47;4903258;29;20694;-55
2023/09/24 10:19:04;;;;;;;4.20;1.70;;;;;;;14.48;93.84;149726.44;4900646;29;20248;-55
2023/09/24 10:21:33;;;;;;;5.97;1.80;;;;;;;14.67;92.66;149771.38;4903351;29;20257;-55
2023/09/24 10:24:00;;;;;;;3.90;1.73;;;;;;;14.89;89.77;149826.34;4899975;29;20237;-53
2023/09/24 10:26:46;;;;;;;5.23;1.80;;;;;;;14.98;87.92;149847.59;4902649;28;20725;-53
2023/09/24 10:29:13;;;;;;;6.40;1.53;;;;;;;14.94;87.60;149837.59;4902185;29;20311;-53
2023/09/24 10:32:12;;;;;;;4.63;1.77;;;;;;;15.02;87.18;149856.31;4900080;29;20712;-55
2023/09/24 10:35:09;;;;;;;4.80;1.50;;;;;;;15.07;86.40;149867.59;4905156;29;20237;-55
2023/09/24 10:37:57;;;;;;;5.00;2.07;;;;;;;15.10;86.76;149876.31;4896935;29;20237;-56
2023/09/24 10:40:26;;;;;;;5.03;2.17;;;;;;;15.25;87.37;149912.56;4898498;29;20377;-53
2023/09/24 10:43:17;;;;;;;4.97;2.27;;;;;;;15.16;86.65;149891.28;4899675;29;20240;-54
2023/09/24 10:45:50;;;;;;;4.70;1.73;;;;;;;15.29;87.25;149922.53;4897764;28;20239;-54
2023/09/24 10:48:17;;;;;;;8.80;2.30;;;;;;;15.62;86.88;150002.47;4900345;29;20273;-54
2023/09/24 10:50:49;;;;;;;5.20;1.63;;;;;;;15.82;83.93;150049.94;4898119;29;20255;-55
2023/09/24 10:53:20;;;;;;;7.77;2.03;;;;;;;16.02;82.90;150098.72;4901045;29;20250;-54
2023/09/24 10:55:50;;;;;;;3.63;1.60;;;;;;;16.27;82.75;150157.50;4898590;28;20718;-53
2023/09/24 10:58:17;;;;;;;4.10;1.87;;;;;;;16.36;78.19;150181.22;4900129;29;20232;-55
2023/09/24 11:00:51;;;;;;;3.50;1.33;;;;;;;16.35;77.81;150178.72;4898156;29;20235;-56
2023/09/24 11:03:18;;;;;;;5.13;1.57;;;;;;;16.55;76.33;150224.94;4901887;29;20609;-55
2023/09/24 11:05:51;;;;;;;4.57;1.53;;;;;;;16.67;76.72;150256.22;4896869;29;20682;-54
2023/09/24 11:08:26;;;;;;;3.50;1.43;;;;;;;16.83;73.84;150293.75;4901262;29;20779;-54
2023/09/24 11:10:53;;;;;;;4.33;1.40;;;;;;;16.97;73.56;150328.75;4900276;29;20701;-54
2023/09/24 11:13:24;;;;;;;3.03;1.20;;;;;;;16.99;71.84;150332.53;4903275;29;20244;-55
2023/09/24 11:15:51;;;;;;;1.83;1.10;;;;;;;17.14;72.25;150368.78;4897080;29;20223;-56
2023/09/24 11:18:18;;;;;;;2.10;1.30;;;;;;;17.35;69.83;150420.09;4902582;29;20244;-55
2023/09/24 11:20:50;;;;;;;5.33;1.70;;;;;;;17.55;72.98;150467.56;4899226;28;20266;-55
2023/09/24 11:23:18;;;;;;;3.13;1.77;;;;;;;17.68;72.38;150500.09;4904266;29;20358;-56
2023/09/24 11:25:51;;;;;;;4.40;1.40;;;;;;;17.78;70.56;150523.91;4895338;28;20235;-56
2023/09/24 11:28:23;;;;;;;3.67;1.47;;;;;;;17.77;69.83;150520.13;4897773;29;20241;-55
2023/09/24 11:30:52;;;;;;;5.60;1.40;;;;;;;17.79;69.46;150526.41;4898248;29;20232;-56
2023/09/24 11:33:20;;;;;;;3.07;1.43;;;;;;;18.11;69.06;150603.97;4921905;28;21186;-54
2023/09/24 11:35:51;;;;;;;4.30;1.80;;;;;;;18.27;69.67;150641.50;4898355;29;20226;-54
2023/09/24 11:38:28;;;;;;;4.10;1.30;;;;;;;18.40;68.59;150674.06;4900613;29;20233;-55